sensor_id;sensor_type;location;lat;lon;timestamp;P1;durP1;ratioP1;P2;durP2;ratioP2
17852;SDS011;9052;53.494;14.376;2022-07-22T00:00:24;15.27;;;12.60;;
17852;SDS011;9052;53.494;14.376;2022-07-22T00:02:51;15.17;;;12.17;;
17852;SDS011;9052;53.494;14.376;2022-07-22T00:05:20;18.87;;;14.33;;
17852;SDS011;9052;53.494;14.376;2022-07-22T00:07:47;17.00;;;13.80;;
17852;SDS011;9052;53.494;14.376;2022-07-22T00:10:15;14.20;;;12.70;;
17852;SDS011;9052;53.494;14.376;2022-07-22T00:12:42;14.57;;;13.00;;
17852;SDS011;9052;53.494;14.376;2022-07-22T00:15:09;14.00;;;12.63;;
17852;SDS011;9052;53.494;14.376;2022-07-22T00:17:37;14.80;;;12.30;;
17852;SDS011;9052;53.494;14.376;2022-07-22T00:20:05;14.63;;;13.17;;
17852;SDS011;9052;53.494;14.376;2022-07-22T00:22:33;13.83;;;12.43;;
17852;SDS011;9052;53.494;14.376;2022-07-22T00:25:00;15.03;;;13.57;;
17852;SDS011;9052;53.494;14.376;2022-07-22T00:27:29;18.30;;;12.87;;
17852;SDS011;9052;53.494;14.376;2022-07-22T00:29:56;17.20;;;13.87;;
17852;SDS011;9052;53.494;14.376;2022-07-22T00:32:23;16.43;;;13.70;;
17852;SDS011;9052;53.494;14.376;2022-07-22T00:34:50;19.13;;;14.37;;
17852;SDS011;9052;53.494;14.376;2022-07-22T00:37:17;14.17;;;12.77;;
17852;SDS011;9052;53.494;14.376;2022-07-22T00:39:44;14.33;;;12.83;;
17852;SDS011;9052;53.494;14.376;2022-07-22T00:42:13;15.60;;;14.13;;
17852;SDS011;9052;53.494;14.376;2022-07-22T00:44:41;18.10;;;13.60;;
17852;SDS011;9052;53.494;14.376;2022-07-22T00:47:09;16.50;;;14.13;;
17852;SDS011;9052;53.494;14.376;2022-07-22T00:49:36;16.83;;;13.40;;
17852;SDS011;9052;53.494;14.376;2022-07-22T00:52:04;13.70;;;12.40;;
17852;SDS011;9052;53.494;14.376;2022-07-22T00:54:31;21.10;;;14.00;;
17852;SDS011;9052;53.494;14.376;2022-07-22T00:56:59;16.23;;;13.73;;
17852;SDS011;9052;53.494;14.376;2022-07-22T00:59:26;21.90;;;13.30;;
17852;SDS011;9052;53.494;14.376;2022-07-22T01:01:54;16.50;;;12.83;;
17852;SDS011;9052;53.494;14.376;2022-07-22T01:04:21;14.37;;;12.57;;
17852;SDS011;9052;53.494;14.376;2022-07-22T01:06:48;15.10;;;13.70;;
17852;SDS011;9052;53.494;14.376;2022-07-22T01:09:15;21.60;;;14.67;;
17852;SDS011;9052;53.494;14.376;2022-07-22T01:11:42;15.07;;;13.57;;
17852;SDS011;9052;53.494;14.376;2022-07-22T01:14:09;22.10;;;13.10;;
17852;SDS011;9052;53.494;14.376;2022-07-22T01:16:36;16.30;;;13.10;;
17852;SDS011;9052;53.494;14.376;2022-07-22T01:19:05;17.20;;;14.30;;
17852;SDS011;9052;53.494;14.376;2022-07-22T01:21:33;14.13;;;11.90;;
17852;SDS011;9052;53.494;14.376;2022-07-22T01:24:00;16.60;;;13.67;;
17852;SDS011;9052;53.494;14.376;2022-07-22T01:26:27;14.80;;;12.93;;
17852;SDS011;9052;53.494;14.376;2022-07-22T01:28:54;16.83;;;12.90;;
17852;SDS011;9052;53.494;14.376;2022-07-22T01:31:21;14.87;;;13.27;;
17852;SDS011;9052;53.494;14.376;2022-07-22T01:33:48;13.13;;;11.33;;
17852;SDS011;9052;53.494;14.376;2022-07-22T01:36:15;19.57;;;12.70;;
17852;SDS011;9052;53.494;14.376;2022-07-22T01:38:44;14.43;;;13.13;;
17852;SDS011;9052;53.494;14.376;2022-07-22T01:41:11;12.60;;;11.30;;
17852;SDS011;9052;53.494;14.376;2022-07-22T01:43:38;13.77;;;12.47;;
17852;SDS011;9052;53.494;14.376;2022-07-22T01:46:05;16.30;;;13.27;;
17852;SDS011;9052;53.494;14.376;2022-07-22T01:48:32;18.40;;;12.43;;
17852;SDS011;9052;53.494;14.376;2022-07-22T01:50:59;20.53;;;12.90;;
17852;SDS011;9052;53.494;14.376;2022-07-22T01:53:26;14.23;;;12.90;;
17852;SDS011;9052;53.494;14.376;2022-07-22T01:55:55;14.80;;;12.97;;
17852;SDS011;9052;53.494;14.376;2022-07-22T01:58:22;20.70;;;13.00;;
17852;SDS011;9052;53.494;14.376;2022-07-22T02:00:48;17.63;;;13.97;;
17852;SDS011;9052;53.494;14.376;2022-07-22T02:03:15;15.70;;;13.10;;
17852;SDS011;9052;53.494;14.376;2022-07-22T02:05:42;15.00;;;13.50;;
17852;SDS011;9052;53.494;14.376;2022-07-22T02:08:10;14.10;;;12.53;;
17852;SDS011;9052;53.494;14.376;2022-07-22T02:10:38;14.77;;;12.10;;
17852;SDS011;9052;53.494;14.376;2022-07-22T02:13:07;13.13;;;11.80;;
17852;SDS011;9052;53.494;14.376;2022-07-22T02:15:34;12.53;;;11.23;;
17852;SDS011;9052;53.494;14.376;2022-07-22T02:18:08;12.17;;;10.97;;
17852;SDS011;9052;53.494;14.376;2022-07-22T02:20:36;13.10;;;11.70;;
17852;SDS011;9052;53.494;14.376;2022-07-22T02:23:03;13.27;;;11.50;;
17852;SDS011;9052;53.494;14.376;2022-07-22T02:25:30;13.77;;;12.37;;
17852;SDS011;9052;53.494;14.376;2022-07-22T02:27:57;15.00;;;11.80;;
17852;SDS011;9052;53.494;14.376;2022-07-22T02:30:26;15.03;;;11.47;;
17852;SDS011;9052;53.494;14.376;2022-07-22T02:32:53;16.77;;;12.10;;
17852;SDS011;9052;53.494;14.376;2022-07-22T02:35:20;12.53;;;11.33;;
17852;SDS011;9052;53.494;14.376;2022-07-22T02:37:47;10.87;;;9.97;;
17852;SDS011;9052;53.494;14.376;2022-07-22T02:40:14;13.33;;;10.83;;
17852;SDS011;9052;53.494;14.376;2022-07-22T02:42:41;12.20;;;11.00;;
17852;SDS011;9052;53.494;14.376;2022-07-22T02:45:08;11.30;;;10.33;;
17852;SDS011;9052;53.494;14.376;2022-07-22T02:47:37;11.17;;;10.03;;
17852;SDS011;9052;53.494;14.376;2022-07-22T02:50:11;14.17;;;12.40;;
17852;SDS011;9052;53.494;14.376;2022-07-22T02:52:38;11.87;;;10.73;;
17852;SDS011;9052;53.494;14.376;2022-07-22T02:55:06;12.30;;;10.97;;
17852;SDS011;9052;53.494;14.376;2022-07-22T02:57:33;14.43;;;10.90;;
17852;SDS011;9052;53.494;14.376;2022-07-22T03:00:00;14.47;;;11.47;;
17852;SDS011;9052;53.494;14.376;2022-07-22T03:02:27;12.93;;;11.30;;
17852;SDS011;9052;53.494;14.376;2022-07-22T03:04:56;25.83;;;12.47;;
17852;SDS011;9052;53.494;14.376;2022-07-22T03:07:23;12.70;;;10.83;;
17852;SDS011;9052;53.494;14.376;2022-07-22T03:09:50;12.87;;;10.77;;
17852;SDS011;9052;53.494;14.376;2022-07-22T03:12:17;13.10;;;10.80;;
17852;SDS011;9052;53.494;14.376;2022-07-22T03:14:44;15.00;;;10.80;;
17852;SDS011;9052;53.494;14.376;2022-07-22T03:17:11;11.80;;;10.70;;
17852;SDS011;9052;53.494;14.376;2022-07-22T03:19:38;13.20;;;11.20;;
17852;SDS011;9052;53.494;14.376;2022-07-22T03:22:06;14.97;;;10.57;;
17852;SDS011;9052;53.494;14.376;2022-07-22T03:24:34;11.30;;;10.10;;
17852;SDS011;9052;53.494;14.376;2022-07-22T03:27:01;12.50;;;10.07;;
17852;SDS011;9052;53.494;14.376;2022-07-22T03:29:28;11.53;;;10.17;;
17852;SDS011;9052;53.494;14.376;2022-07-22T03:31:55;14.60;;;12.00;;
17852;SDS011;9052;53.494;14.376;2022-07-22T03:34:22;14.83;;;11.33;;
17852;SDS011;9052;53.494;14.376;2022-07-22T03:36:49;10.63;;;9.33;;
17852;SDS011;9052;53.494;14.376;2022-07-22T03:39:18;15.03;;;11.20;;
17852;SDS011;9052;53.494;14.376;2022-07-22T03:41:45;12.37;;;10.80;;
17852;SDS011;9052;53.494;14.376;2022-07-22T03:44:12;12.97;;;10.33;;
17852;SDS011;9052;53.494;14.376;2022-07-22T03:46:39;14.53;;;10.53;;
17852;SDS011;9052;53.494;14.376;2022-07-22T03:49:05;18.33;;;11.47;;
17852;SDS011;9052;53.494;14.376;2022-07-22T03:51:32;12.40;;;10.10;;
17852;SDS011;9052;53.494;14.376;2022-07-22T03:53:59;12.93;;;10.00;;
17852;SDS011;9052;53.494;14.376;2022-07-22T03:56:28;11.17;;;9.47;;
17852;SDS011;9052;53.494;14.376;2022-07-22T03:58:55;10.80;;;9.53;;
17852;SDS011;9052;53.494;14.376;2022-07-22T04:01:22;12.07;;;9.30;;
17852;SDS011;9052;53.494;14.376;2022-07-22T04:03:49;11.30;;;9.50;;
17852;SDS011;9052;53.494;14.376;2022-07-22T04:06:16;12.13;;;8.87;;
17852;SDS011;9052;53.494;14.376;2022-07-22T04:08:43;11.87;;;9.10;;
17852;SDS011;9052;53.494;14.376;2022-07-22T04:11:10;9.80;;;8.37;;
17852;SDS011;9052;53.494;14.376;2022-07-22T04:13:39;8.77;;;7.93;;
17852;SDS011;9052;53.494;14.376;2022-07-22T04:16:06;12.17;;;9.63;;
17852;SDS011;9052;53.494;14.376;2022-07-22T04:18:33;11.57;;;9.60;;
17852;SDS011;9052;53.494;14.376;2022-07-22T04:21:00;9.50;;;8.60;;
17852;SDS011;9052;53.494;14.376;2022-07-22T04:23:27;9.63;;;8.63;;
17852;SDS011;9052;53.494;14.376;2022-07-22T04:25:54;10.93;;;9.40;;
17852;SDS011;9052;53.494;14.376;2022-07-22T04:28:21;18.27;;;8.60;;
17852;SDS011;9052;53.494;14.376;2022-07-22T04:30:50;11.07;;;8.70;;
17852;SDS011;9052;53.494;14.376;2022-07-22T04:33:17;10.60;;;8.80;;
17852;SDS011;9052;53.494;14.376;2022-07-22T04:35:44;11.80;;;6.80;;
17852;SDS011;9052;53.494;14.376;2022-07-22T04:38:11;11.20;;;9.13;;
17852;SDS011;9052;53.494;14.376;2022-07-22T04:40:38;9.90;;;8.67;;
17852;SDS011;9052;53.494;14.376;2022-07-22T04:43:05;9.90;;;8.83;;
17852;SDS011;9052;53.494;14.376;2022-07-22T04:45:32;18.40;;;9.03;;
17852;SDS011;9052;53.494;14.376;2022-07-22T04:48:00;9.60;;;8.70;;
17852;SDS011;9052;53.494;14.376;2022-07-22T04:50:27;8.30;;;7.60;;
17852;SDS011;9052;53.494;14.376;2022-07-22T04:52:54;10.40;;;8.70;;
17852;SDS011;9052;53.494;14.376;2022-07-22T04:55:21;12.93;;;9.43;;
17852;SDS011;9052;53.494;14.376;2022-07-22T04:57:48;9.17;;;7.93;;
17852;SDS011;9052;53.494;14.376;2022-07-22T05:00:15;21.50;;;8.40;;
17852;SDS011;9052;53.494;14.376;2022-07-22T05:02:43;16.03;;;8.97;;
17852;SDS011;9052;53.494;14.376;2022-07-22T05:05:11;9.80;;;8.80;;
17852;SDS011;9052;53.494;14.376;2022-07-22T05:07:38;9.13;;;8.33;;
17852;SDS011;9052;53.494;14.376;2022-07-22T05:10:05;13.57;;;8.07;;
17852;SDS011;9052;53.494;14.376;2022-07-22T05:12:33;8.93;;;8.13;;
17852;SDS011;9052;53.494;14.376;2022-07-22T05:15:00;9.07;;;8.20;;
17852;SDS011;9052;53.494;14.376;2022-07-22T05:17:27;9.70;;;8.80;;
17852;SDS011;9052;53.494;14.376;2022-07-22T05:19:54;9.60;;;7.77;;
17852;SDS011;9052;53.494;14.376;2022-07-22T05:22:22;14.20;;;9.93;;
17852;SDS011;9052;53.494;14.376;2022-07-22T05:24:49;10.40;;;9.30;;
17852;SDS011;9052;53.494;14.376;2022-07-22T05:27:16;12.30;;;8.87;;
17852;SDS011;9052;53.494;14.376;2022-07-22T05:29:43;10.57;;;8.90;;
17852;SDS011;9052;53.494;14.376;2022-07-22T05:32:10;12.60;;;9.87;;
17852;SDS011;9052;53.494;14.376;2022-07-22T05:34:37;11.63;;;9.17;;
17852;SDS011;9052;53.494;14.376;2022-07-22T05:37:04;10.53;;;8.30;;
17852;SDS011;9052;53.494;14.376;2022-07-22T05:39:32;15.03;;;8.70;;
17852;SDS011;9052;53.494;14.376;2022-07-22T05:41:59;10.40;;;9.30;;
17852;SDS011;9052;53.494;14.376;2022-07-22T05:44:26;10.97;;;9.77;;
17852;SDS011;9052;53.494;14.376;2022-07-22T05:46:53;13.13;;;8.23;;
17852;SDS011;9052;53.494;14.376;2022-07-22T05:49:20;8.73;;;7.83;;
17852;SDS011;9052;53.494;14.376;2022-07-22T05:51:49;10.23;;;8.33;;
17852;SDS011;9052;53.494;14.376;2022-07-22T05:54:16;12.30;;;8.60;;
17852;SDS011;9052;53.494;14.376;2022-07-22T05:56:45;9.37;;;8.33;;
17852;SDS011;9052;53.494;14.376;2022-07-22T05:59:12;9.07;;;8.17;;
17852;SDS011;9052;53.494;14.376;2022-07-22T06:01:40;91.77;;;10.50;;
17852;SDS011;9052;53.494;14.376;2022-07-22T06:04:07;24.30;;;8.03;;
17852;SDS011;9052;53.494;14.376;2022-07-22T06:06:34;16.20;;;8.30;;
17852;SDS011;9052;53.494;14.376;2022-07-22T06:09:01;7.90;;;7.10;;
17852;SDS011;9052;53.494;14.376;2022-07-22T06:11:28;15.77;;;7.83;;
17852;SDS011;9052;53.494;14.376;2022-07-22T06:13:57;7.40;;;6.80;;
17852;SDS011;9052;53.494;14.376;2022-07-22T06:16:24;8.90;;;7.57;;
17852;SDS011;9052;53.494;14.376;2022-07-22T06:18:51;9.30;;;5.60;;
17852;SDS011;9052;53.494;14.376;2022-07-22T06:21:18;7.70;;;6.87;;
17852;SDS011;9052;53.494;14.376;2022-07-22T06:23:45;41.17;;;8.97;;
17852;SDS011;9052;53.494;14.376;2022-07-22T06:26:12;16.03;;;7.20;;
17852;SDS011;9052;53.494;14.376;2022-07-22T06:28:39;7.50;;;6.80;;
17852;SDS011;9052;53.494;14.376;2022-07-22T06:31:07;9.03;;;6.67;;
17852;SDS011;9052;53.494;14.376;2022-07-22T06:33:34;8.07;;;7.20;;
17852;SDS011;9052;53.494;14.376;2022-07-22T06:36:01;8.47;;;7.37;;
17852;SDS011;9052;53.494;14.376;2022-07-22T06:38:28;11.23;;;7.53;;
17852;SDS011;9052;53.494;14.376;2022-07-22T06:40:55;8.43;;;7.70;;
17852;SDS011;9052;53.494;14.376;2022-07-22T06:43:22;14.00;;;7.00;;
17852;SDS011;9052;53.494;14.376;2022-07-22T06:45:49;9.97;;;6.67;;
17852;SDS011;9052;53.494;14.376;2022-07-22T06:48:17;7.50;;;6.57;;
17852;SDS011;9052;53.494;14.376;2022-07-22T06:50:44;8.20;;;6.10;;
17852;SDS011;9052;53.494;14.376;2022-07-22T06:53:11;6.63;;;5.83;;
17852;SDS011;9052;53.494;14.376;2022-07-22T06:55:38;11.00;;;6.43;;
17852;SDS011;9052;53.494;14.376;2022-07-22T06:58:05;20.27;;;7.50;;
17852;SDS011;9052;53.494;14.376;2022-07-22T07:00:32;6.93;;;6.00;;
17852;SDS011;9052;53.494;14.376;2022-07-22T07:02:59;7.87;;;5.83;;
17852;SDS011;9052;53.494;14.376;2022-07-22T07:05:28;11.63;;;7.17;;
17852;SDS011;9052;53.494;14.376;2022-07-22T07:07:55;18.50;;;6.97;;
17852;SDS011;9052;53.494;14.376;2022-07-22T07:10:22;21.63;;;7.40;;
17852;SDS011;9052;53.494;14.376;2022-07-22T07:12:49;14.10;;;7.07;;
17852;SDS011;9052;53.494;14.376;2022-07-22T07:15:16;7.23;;;6.17;;
17852;SDS011;9052;53.494;14.376;2022-07-22T07:17:43;6.87;;;6.10;;
17852;SDS011;9052;53.494;14.376;2022-07-22T07:20:10;18.90;;;5.53;;
17852;SDS011;9052;53.494;14.376;2022-07-22T07:22:39;25.10;;;8.07;;
17852;SDS011;9052;53.494;14.376;2022-07-22T07:25:07;20.27;;;6.50;;
17852;SDS011;9052;53.494;14.376;2022-07-22T07:27:35;5.90;;;5.40;;
17852;SDS011;9052;53.494;14.376;2022-07-22T07:30:03;6.50;;;5.90;;
17852;SDS011;9052;53.494;14.376;2022-07-22T07:32:30;8.00;;;5.47;;
17852;SDS011;9052;53.494;14.376;2022-07-22T07:34:57;5.20;;;4.80;;
17852;SDS011;9052;53.494;14.376;2022-07-22T07:37:24;8.40;;;5.77;;
17852;SDS011;9052;53.494;14.376;2022-07-22T07:39:53;5.50;;;5.10;;
17852;SDS011;9052;53.494;14.376;2022-07-22T07:42:20;10.63;;;5.33;;
17852;SDS011;9052;53.494;14.376;2022-07-22T07:44:47;16.67;;;6.13;;
17852;SDS011;9052;53.494;14.376;2022-07-22T07:47:14;5.60;;;4.87;;
17852;SDS011;9052;53.494;14.376;2022-07-22T07:49:42;13.97;;;5.83;;
17852;SDS011;9052;53.494;14.376;2022-07-22T07:52:09;5.77;;;5.20;;
17852;SDS011;9052;53.494;14.376;2022-07-22T07:54:37;18.07;;;5.10;;
17852;SDS011;9052;53.494;14.376;2022-07-22T07:57:06;4.93;;;4.43;;
17852;SDS011;9052;53.494;14.376;2022-07-22T07:59:34;4.83;;;4.43;;
17852;SDS011;9052;53.494;14.376;2022-07-22T08:02:01;7.87;;;3.50;;
17852;SDS011;9052;53.494;14.376;2022-07-22T08:04:28;7.53;;;4.93;;
17852;SDS011;9052;53.494;14.376;2022-07-22T08:06:55;6.83;;;4.97;;
17852;SDS011;9052;53.494;14.376;2022-07-22T08:09:23;9.93;;;4.40;;
17852;SDS011;9052;53.494;14.376;2022-07-22T08:11:50;8.20;;;5.10;;
17852;SDS011;9052;53.494;14.376;2022-07-22T08:14:19;5.10;;;4.70;;
17852;SDS011;9052;53.494;14.376;2022-07-22T08:16:46;49.50;;;5.97;;
17852;SDS011;9052;53.494;14.376;2022-07-22T08:19:14;4.63;;;4.33;;
17852;SDS011;9052;53.494;14.376;2022-07-22T08:21:43;4.70;;;4.30;;
17852;SDS011;9052;53.494;14.376;2022-07-22T08:24:10;9.30;;;4.80;;
17852;SDS011;9052;53.494;14.376;2022-07-22T08:26:37;5.00;;;4.10;;
17852;SDS011;9052;53.494;14.376;2022-07-22T08:29:04;4.23;;;3.93;;
17852;SDS011;9052;53.494;14.376;2022-07-22T08:31:34;4.67;;;3.70;;
17852;SDS011;9052;53.494;14.376;2022-07-22T08:34:01;5.93;;;4.40;;
17852;SDS011;9052;53.494;14.376;2022-07-22T08:36:29;4.43;;;4.03;;
17852;SDS011;9052;53.494;14.376;2022-07-22T08:38:56;7.60;;;4.23;;
17852;SDS011;9052;53.494;14.376;2022-07-22T08:41:23;6.77;;;4.70;;
17852;SDS011;9052;53.494;14.376;2022-07-22T08:43:51;4.47;;;4.10;;
17852;SDS011;9052;53.494;14.376;2022-07-22T08:46:18;4.97;;;4.50;;
17852;SDS011;9052;53.494;14.376;2022-07-22T08:48:47;4.27;;;3.87;;
17852;SDS011;9052;53.494;14.376;2022-07-22T08:51:14;6.40;;;4.83;;
17852;SDS011;9052;53.494;14.376;2022-07-22T08:53:41;4.93;;;4.43;;
17852;SDS011;9052;53.494;14.376;2022-07-22T08:56:08;4.77;;;4.33;;
17852;SDS011;9052;53.494;14.376;2022-07-22T08:58:35;5.50;;;5.10;;
17852;SDS011;9052;53.494;14.376;2022-07-22T09:01:06;5.87;;;3.77;;
17852;SDS011;9052;53.494;14.376;2022-07-22T09:03:33;7.93;;;5.07;;
17852;SDS011;9052;53.494;14.376;2022-07-22T09:06:12;6.70;;;5.23;;
17852;SDS011;9052;53.494;14.376;2022-07-22T09:08:52;61.10;;;6.77;;
17852;SDS011;9052;53.494;14.376;2022-07-22T09:11:21;11.60;;;4.90;;
17852;SDS011;9052;53.494;14.376;2022-07-22T09:13:50;6.70;;;4.87;;
17852;SDS011;9052;53.494;14.376;2022-07-22T09:19:08;4.97;;;4.57;;
17852;SDS011;9052;53.494;14.376;2022-07-22T09:21:37;10.23;;;4.97;;
17852;SDS011;9052;53.494;14.376;2022-07-22T09:24:06;11.10;;;4.60;;
17852;SDS011;9052;53.494;14.376;2022-07-22T09:26:36;4.80;;;4.30;;
17852;SDS011;9052;53.494;14.376;2022-07-22T09:29:05;6.63;;;4.20;;
17852;SDS011;9052;53.494;14.376;2022-07-22T09:31:33;4.73;;;4.00;;
17852;SDS011;9052;53.494;14.376;2022-07-22T09:34:02;10.77;;;4.20;;
17852;SDS011;9052;53.494;14.376;2022-07-22T09:36:30;5.77;;;4.20;;
17852;SDS011;9052;53.494;14.376;2022-07-22T09:38:58;6.43;;;4.37;;
17852;SDS011;9052;53.494;14.376;2022-07-22T09:41:25;12.93;;;4.33;;
17852;SDS011;9052;53.494;14.376;2022-07-22T09:43:53;6.00;;;4.00;;
17852;SDS011;9052;53.494;14.376;2022-07-22T09:46:32;10.93;;;4.00;;
17852;SDS011;9052;53.494;14.376;2022-07-22T09:49:02;6.40;;;3.40;;
17852;SDS011;9052;53.494;14.376;2022-07-22T09:51:29;5.13;;;4.43;;
17852;SDS011;9052;53.494;14.376;2022-07-22T09:53:59;9.73;;;3.80;;
17852;SDS011;9052;53.494;14.376;2022-07-22T09:56:27;7.77;;;4.97;;
17852;SDS011;9052;53.494;14.376;2022-07-22T09:58:56;18.00;;;4.10;;
17852;SDS011;9052;53.494;14.376;2022-07-22T10:01:23;4.97;;;4.67;;
17852;SDS011;9052;53.494;14.376;2022-07-22T10:03:50;7.80;;;4.43;;
17852;SDS011;9052;53.494;14.376;2022-07-22T10:06:20;11.50;;;4.17;;
17852;SDS011;9052;53.494;14.376;2022-07-22T10:08:48;4.40;;;3.93;;
17852;SDS011;9052;53.494;14.376;2022-07-22T10:11:19;3.40;;;3.20;;
17852;SDS011;9052;53.494;14.376;2022-07-22T10:13:46;12.60;;;2.57;;
17852;SDS011;9052;53.494;14.376;2022-07-22T10:16:14;2.97;;;2.77;;
17852;SDS011;9052;53.494;14.376;2022-07-22T10:18:45;4.73;;;2.83;;
17852;SDS011;9052;53.494;14.376;2022-07-22T10:21:13;3.27;;;2.97;;
17852;SDS011;9052;53.494;14.376;2022-07-22T10:26:48;6.63;;;3.20;;
17852;SDS011;9052;53.494;14.376;2022-07-22T10:29:24;3.00;;;2.80;;
17852;SDS011;9052;53.494;14.376;2022-07-22T10:37:58;7.07;;;3.90;;
17852;SDS011;9052;53.494;14.376;2022-07-22T10:40:27;6.43;;;4.17;;
17852;SDS011;9052;53.494;14.376;2022-07-22T10:43:12;4.50;;;3.87;;
17852;SDS011;9052;53.494;14.376;2022-07-22T10:45:41;3.60;;;3.30;;
17852;SDS011;9052;53.494;14.376;2022-07-22T10:48:11;10.30;;;4.03;;
17852;SDS011;9052;53.494;14.376;2022-07-22T10:53:41;4.30;;;3.10;;
17852;SDS011;9052;53.494;14.376;2022-07-22T10:59:35;5.57;;;4.00;;
17852;SDS011;9052;53.494;14.376;2022-07-22T11:02:02;2.83;;;2.67;;
17852;SDS011;9052;53.494;14.376;2022-07-22T11:04:30;2.93;;;2.60;;
17852;SDS011;9052;53.494;14.376;2022-07-22T11:06:57;2.93;;;2.73;;
17852;SDS011;9052;53.494;14.376;2022-07-22T11:09:30;2.83;;;2.73;;
17852;SDS011;9052;53.494;14.376;2022-07-22T11:11:58;4.57;;;2.93;;
17852;SDS011;9052;53.494;14.376;2022-07-22T11:14:26;12.53;;;3.70;;
17852;SDS011;9052;53.494;14.376;2022-07-22T11:16:57;6.37;;;2.83;;
17852;SDS011;9052;53.494;14.376;2022-07-22T11:19:25;5.07;;;2.80;;
17852;SDS011;9052;53.494;14.376;2022-07-22T11:21:54;2.47;;;2.37;;
17852;SDS011;9052;53.494;14.376;2022-07-22T11:24:22;2.43;;;2.33;;
17852;SDS011;9052;53.494;14.376;2022-07-22T11:26:50;10.33;;;2.97;;
17852;SDS011;9052;53.494;14.376;2022-07-22T11:29:24;2.53;;;2.43;;
17852;SDS011;9052;53.494;14.376;2022-07-22T11:31:53;108.03;;;9.13;;
17852;SDS011;9052;53.494;14.376;2022-07-22T11:34:22;10.23;;;2.60;;
17852;SDS011;9052;53.494;14.376;2022-07-22T11:36:49;2.63;;;2.40;;
17852;SDS011;9052;53.494;14.376;2022-07-22T11:39:18;5.47;;;2.40;;
17852;SDS011;9052;53.494;14.376;2022-07-22T11:41:46;10.03;;;2.33;;
17852;SDS011;9052;53.494;14.376;2022-07-22T11:44:16;2.40;;;2.30;;
17852;SDS011;9052;53.494;14.376;2022-07-22T11:46:44;15.27;;;2.77;;
17852;SDS011;9052;53.494;14.376;2022-07-22T11:49:13;4.13;;;2.30;;
17852;SDS011;9052;53.494;14.376;2022-07-22T11:51:42;2.50;;;2.30;;
17852;SDS011;9052;53.494;14.376;2022-07-22T11:54:09;1.80;;;1.70;;
17852;SDS011;9052;53.494;14.376;2022-07-22T11:56:37;1.67;;;1.57;;
17852;SDS011;9052;53.494;14.376;2022-07-22T11:59:04;2.50;;;1.87;;
17852;SDS011;9052;53.494;14.376;2022-07-22T12:01:34;2.00;;;1.80;;
17852;SDS011;9052;53.494;14.376;2022-07-22T12:04:02;1.43;;;1.33;;
17852;SDS011;9052;53.494;14.376;2022-07-22T12:06:31;8.33;;;1.87;;
17852;SDS011;9052;53.494;14.376;2022-07-22T12:09:03;6.13;;;2.23;;
17852;SDS011;9052;53.494;14.376;2022-07-22T12:11:33;1.83;;;1.50;;
17852;SDS011;9052;53.494;14.376;2022-07-22T12:14:04;1.87;;;1.40;;
17852;SDS011;9052;53.494;14.376;2022-07-22T12:16:33;1.83;;;1.73;;
17852;SDS011;9052;53.494;14.376;2022-07-22T12:19:00;4.07;;;1.57;;
17852;SDS011;9052;53.494;14.376;2022-07-22T12:21:29;3.50;;;1.40;;
17852;SDS011;9052;53.494;14.376;2022-07-22T12:24:00;4.23;;;1.47;;
17852;SDS011;9052;53.494;14.376;2022-07-22T12:26:42;16.77;;;2.77;;
17852;SDS011;9052;53.494;14.376;2022-07-22T12:29:14;5.50;;;1.70;;
17852;SDS011;9052;53.494;14.376;2022-07-22T12:31:42;45.13;;;3.93;;
17852;SDS011;9052;53.494;14.376;2022-07-22T12:34:10;3.73;;;1.63;;
17852;SDS011;9052;53.494;14.376;2022-07-22T12:36:37;1.40;;;1.30;;
17852;SDS011;9052;53.494;14.376;2022-07-22T12:39:14;4.07;;;2.00;;
17852;SDS011;9052;53.494;14.376;2022-07-22T12:41:48;2.90;;;1.07;;
17852;SDS011;9052;53.494;14.376;2022-07-22T12:44:17;1.10;;;1.00;;
17852;SDS011;9052;53.494;14.376;2022-07-22T12:46:45;2.80;;;1.77;;
17852;SDS011;9052;53.494;14.376;2022-07-22T12:49:12;2.70;;;1.30;;
17852;SDS011;9052;53.494;14.376;2022-07-22T12:51:42;5.43;;;1.67;;
17852;SDS011;9052;53.494;14.376;2022-07-22T12:54:46;29.80;;;3.80;;
17852;SDS011;9052;53.494;14.376;2022-07-22T12:57:14;7.17;;;1.50;;
17852;SDS011;9052;53.494;14.376;2022-07-22T12:59:41;11.03;;;1.87;;
17852;SDS011;9052;53.494;14.376;2022-07-22T13:02:17;5.53;;;1.30;;
17852;SDS011;9052;53.494;14.376;2022-07-22T13:04:44;6.93;;;1.60;;
17852;SDS011;9052;53.494;14.376;2022-07-22T13:07:11;1.73;;;1.50;;
17852;SDS011;9052;53.494;14.376;2022-07-22T13:09:38;5.77;;;1.80;;
17852;SDS011;9052;53.494;14.376;2022-07-22T13:12:06;3.00;;;1.50;;
17852;SDS011;9052;53.494;14.376;2022-07-22T13:14:34;7.13;;;2.30;;
17852;SDS011;9052;53.494;14.376;2022-07-22T13:17:01;8.97;;;2.13;;
17852;SDS011;9052;53.494;14.376;2022-07-22T13:19:30;28.33;;;2.87;;
17852;SDS011;9052;53.494;14.376;2022-07-22T13:21:57;5.17;;;2.03;;
17852;SDS011;9052;53.494;14.376;2022-07-22T13:24:24;6.63;;;1.93;;
17852;SDS011;9052;53.494;14.376;2022-07-22T13:26:50;2.20;;;1.97;;
17852;SDS011;9052;53.494;14.376;2022-07-22T13:29:18;5.13;;;2.30;;
17852;SDS011;9052;53.494;14.376;2022-07-22T13:31:46;3.93;;;1.80;;
17852;SDS011;9052;53.494;14.376;2022-07-22T13:34:14;7.30;;;1.87;;
17852;SDS011;9052;53.494;14.376;2022-07-22T13:36:41;6.37;;;2.10;;
17852;SDS011;9052;53.494;14.376;2022-07-22T13:39:08;6.83;;;2.20;;
17852;SDS011;9052;53.494;14.376;2022-07-22T13:41:35;8.60;;;2.30;;
17852;SDS011;9052;53.494;14.376;2022-07-22T13:44:02;4.67;;;2.03;;
17852;SDS011;9052;53.494;14.376;2022-07-22T13:46:33;11.43;;;2.10;;
17852;SDS011;9052;53.494;14.376;2022-07-22T13:49:01;9.10;;;2.27;;
17852;SDS011;9052;53.494;14.376;2022-07-22T13:51:29;2.13;;;1.93;;
17852;SDS011;9052;53.494;14.376;2022-07-22T13:53:57;16.43;;;2.47;;
17852;SDS011;9052;53.494;14.376;2022-07-22T13:56:24;10.10;;;2.60;;
17852;SDS011;9052;53.494;14.376;2022-07-22T13:58:51;3.17;;;1.90;;
17852;SDS011;9052;53.494;14.376;2022-07-22T14:01:18;4.33;;;2.47;;
17852;SDS011;9052;53.494;14.376;2022-07-22T14:03:46;15.37;;;2.40;;
17852;SDS011;9052;53.494;14.376;2022-07-22T14:06:15;9.10;;;2.80;;
17852;SDS011;9052;53.494;14.376;2022-07-22T14:08:42;11.30;;;2.77;;
17852;SDS011;9052;53.494;14.376;2022-07-22T14:11:09;13.83;;;2.80;;
17852;SDS011;9052;53.494;14.376;2022-07-22T14:13:36;19.03;;;4.03;;
17852;SDS011;9052;53.494;14.376;2022-07-22T14:16:04;11.03;;;2.80;;
17852;SDS011;9052;53.494;14.376;2022-07-22T14:18:45;5.80;;;2.30;;
17852;SDS011;9052;53.494;14.376;2022-07-22T14:21:12;8.60;;;2.27;;
17852;SDS011;9052;53.494;14.376;2022-07-22T14:23:40;4.37;;;2.30;;
17852;SDS011;9052;53.494;14.376;2022-07-22T14:26:07;8.77;;;3.00;;
17852;SDS011;9052;53.494;14.376;2022-07-22T14:28:34;2.47;;;2.27;;
17852;SDS011;9052;53.494;14.376;2022-07-22T14:31:01;8.30;;;2.60;;
17852;SDS011;9052;53.494;14.376;2022-07-22T14:33:28;16.93;;;2.30;;
17852;SDS011;9052;53.494;14.376;2022-07-22T14:36:07;17.40;;;4.30;;
17852;SDS011;9052;53.494;14.376;2022-07-22T14:38:34;8.70;;;2.50;;
17852;SDS011;9052;53.494;14.376;2022-07-22T14:41:02;5.23;;;2.27;;
17852;SDS011;9052;53.494;14.376;2022-07-22T14:43:29;34.60;;;4.27;;
17852;SDS011;9052;53.494;14.376;2022-07-22T14:45:56;36.77;;;3.10;;
17852;SDS011;9052;53.494;14.376;2022-07-22T14:48:23;3.13;;;2.00;;
17852;SDS011;9052;53.494;14.376;2022-07-22T14:50:50;8.70;;;2.37;;
17852;SDS011;9052;53.494;14.376;2022-07-22T14:53:17;9.00;;;2.90;;
17852;SDS011;9052;53.494;14.376;2022-07-22T14:55:44;25.53;;;2.67;;
17852;SDS011;9052;53.494;14.376;2022-07-22T14:58:12;8.13;;;3.27;;
17852;SDS011;9052;53.494;14.376;2022-07-22T15:00:39;5.87;;;2.50;;